Carnes, Iowa
Current Conditions -  °F | °C
As of 2:15 AM on Thursday 29 Jan 2015 (Local Time) from KORC Reporting Station
Overcast Overcast  
Wind Chill: -3°   Ceiling: 2300
Heat Index:   Visibility: 10mi
Dew Point: -2°   Wind: 15mph
Humidity: 75%   Direction: 330°NNW
Pressure: 30.06"   Gusts: 23mph
Location:  42.9504°N, 96.034°W
Report Text: KORC 290815Z AUTO 33013G20KT 10SM OVC023 02/M02 A3006 RMK AO2
Loading
Personal Weather Stations






























Interactive Weather Map New forecast layout! Learn more

10-Day Weather Forecast

Advertisements
Track Severe Weather on mobile